Time;durP1;ratioP1;P1;durP2;ratioP2;P2;SDS_P1;SDS_P2;PMS_P1;PMS_P2;Temp;Humidity;BMP_temperature;BMP_pressure;BME280_temperature;BME280_humidity;BME280_pressure;Samples;Min_cycle;Max_cycle;Signal;HPM_P1;HPM_P2
2023/06/18 00:02:23;;;;;;;;;27.00;27.00;;;;;25.63;44.47;100178.91;5056783;28;45971;-72
2023/06/18 00:04:48;;;;;;;;;28.25;28.00;;;;;25.57;44.74;100171.50;5055443;28;45280;-72
2023/06/18 00:07:13;;;;;;;;;29.25;29.00;;;;;25.57;44.43;100170.69;5055499;28;45232;-70
2023/06/18 00:09:39;;;;;;;;;27.50;27.50;;;;;25.57;44.63;100173.38;5057071;28;45378;-72
2023/06/18 00:12:05;;;;;;;;;27.25;27.25;;;;;25.56;44.63;100174.38;5056749;28;45319;-68
2023/06/18 00:14:30;;;;;;;;;25.50;25.50;;;;;25.53;44.66;100172.88;5056033;28;45367;-72
2023/06/18 00:16:55;;;;;;;;;25.00;25.00;;;;;25.52;44.39;100169.34;5056690;28;45298;-73
2023/06/18 00:19:21;;;;;;;;;27.00;27.00;;;;;25.49;44.88;100163.44;5057090;28;45571;-74
2023/06/18 00:21:47;;;;;;;;;23.00;23.00;;;;;25.49;44.66;100158.91;5056554;28;46536;-73
2023/06/18 00:24:13;;;;;;;;;24.00;24.00;;;;;25.48;45.14;100165.31;5054951;28;45512;-73
2023/06/18 00:26:38;;;;;;;;;25.50;25.50;;;;;25.45;45.28;100151.31;5056874;28;45611;-72
2023/06/18 00:29:03;;;;;;;;;22.25;22.25;;;;;25.32;44.94;100143.72;5056650;28;51553;-68
2023/06/18 00:31:32;;;;;;;;;35.25;31.50;;;;;25.41;45.30;100155.34;5056643;28;45299;-74
2023/06/18 00:34:04;;;;;;;;;29.00;28.50;;;;;25.36;45.22;100147.75;5054978;28;45458;-72
2023/06/18 00:36:31;;;;;;;;;24.50;24.50;;;;;25.40;45.66;100164.44;5056899;28;45408;-71
2023/06/18 00:38:57;;;;;;;;;23.00;23.00;;;;;25.35;45.37;100154.16;5056710;28;45404;-72
2023/06/18 00:41:24;;;;;;;;;26.75;26.75;;;;;25.35;45.30;100157.72;5056371;28;46197;-72
2023/06/18 00:43:49;;;;;;;;;24.75;24.75;;;;;25.33;45.58;100158.88;5056495;28;45382;-72
2023/06/18 00:46:17;;;;;;;;;24.25;24.25;;;;;25.32;45.67;100165.25;5056261;28;45173;-72
2023/06/18 00:48:45;;;;;;;;;23.25;23.25;;;;;25.32;45.93;100173.34;5055362;28;45317;-73
2023/06/18 00:51:11;;;;;;;;;25.50;25.50;;;;;25.30;46.07;100191.50;5056174;28;45417;-73
2023/06/18 00:53:37;;;;;;;;;26.75;26.75;;;;;25.31;46.04;100194.03;5056385;28;45498;-71
2023/06/18 00:56:03;;;;;;;;;24.75;24.75;;;;;25.29;46.27;100192.50;5056529;28;45420;-72
2023/06/18 00:58:28;;;;;;;;;22.00;22.00;;;;;25.25;46.37;100181.25;5056474;28;45222;-71
2023/06/18 01:00:53;;;;;;;;;26.00;26.00;;;;;25.28;46.65;100206.97;5056009;28;45449;-72
2023/06/18 01:03:21;;;;;;;;;25.75;25.75;;;;;25.26;48.67;100230.53;5056436;28;45409;-73
2023/06/18 01:05:50;;;;;;;;;23.75;23.75;;;;;25.19;50.15;100249.22;5056360;28;45486;-72
2023/06/18 01:08:17;;;;;;;;;27.00;26.25;;;;;25.06;52.99;100242.47;5055329;28;45859;-71
2023/06/18 01:10:43;;;;;;;;;28.50;28.50;;;;;24.91;53.28;100244.94;5055966;28;45835;-72
2023/06/18 01:13:10;;;;;;;;;31.50;30.00;;;;;24.76;56.70;100254.66;5054818;28;45355;-71
2023/06/18 01:15:36;;;;;;;;;27.75;27.75;;;;;24.58;59.33;100228.66;5056489;28;45307;-70
2023/06/18 01:18:06;;;;;;;;;30.00;29.50;;;;;24.31;60.60;100227.84;5056281;28;45326;-73
2023/06/18 01:20:40;;;;;;;;;31.50;30.50;;;;;24.18;60.53;100232.81;5054644;28;47732;-69
2023/06/18 01:23:14;;;;;;;;;27.50;27.50;;;;;24.05;61.05;100239.47;5055869;28;45351;-70
2023/06/18 01:25:40;;;;;;;;;25.00;25.00;;;;;23.91;61.16;100234.66;5055793;28;45311;-68
2023/06/18 01:28:07;;;;;;;;;25.75;25.75;;;;;23.73;61.35;100227.50;5056106;28;45416;-71
2023/06/18 01:30:36;;;;;;;;;24.75;24.75;;;;;23.61;63.76;100234.09;5055785;28;45342;-70
2023/06/18 01:33:04;;;;;;;;;29.00;28.75;;;;;23.48;67.17;100221.94;5055711;28;45492;-69
2023/06/18 01:35:30;;;;;;;;;30.00;29.50;;;;;23.41;67.13;100212.81;5055519;28;45382;-72
2023/06/18 01:38:14;;;;;;;;;29.50;29.00;;;;;23.40;69.11;100219.19;5055936;28;45302;-73
2023/06/18 01:40:57;;;;;;;;;26.25;26.25;;;;;23.39;68.33;100189.78;5056089;28;45741;-73
2023/06/18 01:43:32;;;;;;;;;24.75;24.75;;;;;23.36;69.88;100182.91;5055967;28;45332;-73
2023/06/18 01:46:04;;;;;;;;;30.00;30.00;;;;;23.30;70.55;100173.63;5054438;28;45234;-73
2023/06/18 01:48:35;;;;;;;;;27.00;27.00;;;;;23.20;71.95;100170.16;5055901;28;45429;-74
2023/06/18 01:51:03;;;;;;;;;27.00;27.00;;;;;23.15;71.65;100157.19;5055412;28;45795;-74
2023/06/18 01:53:30;;;;;;;;;24.25;24.25;;;;;23.13;72.85;100148.47;5055431;28;45334;-75
2023/06/18 01:55:57;;;;;;;;;24.50;24.50;;;;;23.05;72.68;100151.94;5055603;28;45318;-72
2023/06/18 01:58:22;;;;;;;;;25.50;25.50;;;;;23.00;72.77;100162.28;5054104;28;45481;-74
2023/06/18 02:00:49;;;;;;;;;26.50;26.50;;;;;22.97;72.97;100159.91;5055017;28;45645;-72
2023/06/18 02:03:15;;;;;;;;;27.50;27.50;;;;;22.98;72.38;100172.31;5055263;28;45335;-72
2023/06/18 02:05:40;;;;;;;;;23.00;22.50;;;;;22.98;73.46;100182.19;5071019;27;45431;-74
2023/06/18 02:08:06;;;;;;;;;26.75;26.25;;;;;22.93;72.97;100173.75;5055795;28;45362;-74
2023/06/18 02:10:31;;;;;;;;;29.00;29.00;;;;;22.97;72.86;100191.22;5053603;28;48880;-71
2023/06/18 02:12:57;;;;;;;;;24.25;24.25;;;;;22.95;74.55;100190.53;5036815;28;45423;-73
2023/06/18 02:15:22;;;;;;;;;26.75;26.75;;;;;22.93;76.90;100197.88;5055062;28;45444;-73
2023/06/18 02:17:48;;;;;;;;;28.25;28.25;;;;;22.93;77.00;100200.56;5070467;28;45274;-70
2023/06/18 02:20:13;;;;;;;;;25.50;25.50;;;;;22.96;78.77;100203.81;5053450;28;45338;-72
2023/06/18 02:22:39;;;;;;;;;31.50;30.50;;;;;23.00;79.34;100210.56;5055227;28;45192;-72
2023/06/18 02:25:05;;;;;;;;;31.00;29.50;;;;;23.07;80.31;100204.56;5055275;28;45170;-71
2023/06/18 02:27:30;;;;;;;;;28.50;27.50;;;;;23.07;79.29;100205.41;5055270;28;46061;-73
2023/06/18 02:29:56;;;;;;;;;27.50;27.50;;;;;23.08;78.81;100199.03;5054060;28;46279;-73
2023/06/18 02:32:21;;;;;;;;;26.00;26.00;;;;;23.10;78.77;100183.63;5054788;28;45313;-73
2023/06/18 02:34:46;;;;;;;;;36.75;31.75;;;;;23.14;79.85;100173.47;5055117;28;45319;-73
2023/06/18 02:37:12;;;;;;;;;29.25;29.25;;;;;23.20;79.22;100170.16;5054960;28;45546;-72
2023/06/18 02:39:37;;;;;;;;;30.00;29.25;;;;;23.24;79.15;100176.06;5054864;28;45450;-72
2023/06/18 02:42:03;;;;;;;;;28.25;28.00;;;;;23.23;79.39;100175.22;5054486;28;46769;-72
2023/06/18 02:44:28;;;;;;;;;28.00;28.00;;;;;23.26;76.94;100163.34;5054757;28;45344;-68
2023/06/18 02:46:55;;;;;;;;;27.50;27.50;;;;;23.30;75.73;100165.56;5054772;28;45581;-72
2023/06/18 02:49:20;;;;;;;;;28.50;28.50;;;;;23.28;74.65;100169.41;5053096;28;46631;-73
2023/06/18 02:51:46;;;;;;;;;27.50;27.50;;;;;23.28;76.41;100182.81;5054479;28;45373;-70
2023/06/18 02:54:11;;;;;;;;;31.00;30.00;;;;;23.29;77.50;100180.00;5054914;28;45314;-71
2023/06/18 02:56:37;;;;;;;;;31.75;30.75;;;;;23.28;76.07;100183.69;5054845;28;45278;-69
2023/06/18 02:59:02;;;;;;;;;28.75;28.25;;;;;23.22;76.05;100170.84;5054501;28;45337;-71
2023/06/18 03:01:32;;;;;;;;;30.50;29.75;;;;;23.22;74.56;100167.31;5054711;28;45267;-73
2023/06/18 03:03:58;;;;;;;;;26.75;26.75;;;;;23.21;73.57;100185.25;5055123;28;45345;-74
2023/06/18 03:06:23;;;;;;;;;22.75;22.75;;;;;23.16;73.04;100182.19;5054852;28;45338;-72
2023/06/18 03:08:49;;;;;;;;;23.75;23.75;;;;;23.10;73.16;100182.81;5054340;28;45436;-72
2023/06/18 03:11:15;;;;;;;;;24.25;24.00;;;;;23.01;73.57;100192.59;5054218;28;45535;-72
2023/06/18 03:13:40;;;;;;;;;24.00;23.75;;;;;22.97;72.49;100185.88;5054854;28;45295;-74
2023/06/18 03:16:05;;;;;;;;;20.75;20.75;;;;;22.92;71.90;100189.03;5054574;28;45209;-71
2023/06/18 03:18:31;;;;;;;;;21.00;21.00;;;;;22.86;72.50;100190.44;5054060;28;46080;-69
2023/06/18 03:20:56;;;;;;;;;23.75;23.75;;;;;22.81;72.13;100186.56;5054266;28;45430;-73
2023/06/18 03:23:22;;;;;;;;;21.50;21.50;;;;;22.81;72.96;100184.69;5052857;28;45448;-72
2023/06/18 03:25:47;;;;;;;;;18.50;18.50;;;;;22.79;72.54;100183.16;5054536;28;45583;-71
2023/06/18 03:28:12;;;;;;;;;18.00;18.00;;;;;22.81;72.13;100198.09;5053989;28;59547;-73
2023/06/18 03:30:38;;;;;;;;;20.25;20.25;;;;;22.80;71.50;100198.25;5054336;28;45267;-72
2023/06/18 03:33:04;;;;;;;;;21.00;21.00;;;;;22.75;71.90;100191.50;5052607;28;45370;-72
2023/06/18 03:35:30;;;;;;;;;23.50;23.50;;;;;22.70;71.53;100191.09;5054347;28;45511;-73
2023/06/18 03:37:55;;;;;;;;;19.50;19.50;;;;;22.63;71.50;100183.84;5053979;28;47044;-74
2023/06/18 03:40:21;;;;;;;;;21.25;21.25;;;;;22.68;72.29;100203.00;5053427;28;45315;-74
2023/06/18 03:42:46;;;;;;;;;23.00;23.00;;;;;22.68;73.02;100208.34;5057581;28;45224;-72
2023/06/18 03:45:12;;;;;;;;;24.00;24.00;;;;;22.63;73.87;100210.63;5057914;28;45574;-71
2023/06/18 03:47:37;;;;;;;;;25.25;25.25;;;;;22.61;74.04;100217.00;5057126;28;47832;-70
2023/06/18 03:50:02;;;;;;;;;27.75;27.50;;;;;22.62;74.20;100212.47;5057330;28;45193;-74
2023/06/18 03:52:28;;;;;;;;;25.50;25.50;;;;;22.55;73.93;100196.16;5057305;28;45378;-71
2023/06/18 03:54:53;;;;;;;;;24.00;24.00;;;;;22.54;73.72;100191.78;5057386;28;45433;-73
2023/06/18 03:57:19;;;;;;;;;25.25;24.50;;;;;22.52;73.95;100199.13;5055586;28;46031;-72
2023/06/18 03:59:44;;;;;;;;;25.50;25.50;;;;;22.51;74.09;100197.44;5057414;28;45306;-73
2023/06/18 04:02:09;;;;;;;;;25.75;25.75;;;;;22.54;74.20;100202.50;5055831;28;45269;-71
2023/06/18 04:04:35;;;;;;;;;26.50;26.50;;;;;22.54;73.86;100193.59;5057010;28;45593;-75
2023/06/18 04:07:00;;;;;;;;;26.00;26.00;;;;;22.57;74.02;100190.63;5056786;28;45984;-73
2023/06/18 04:09:26;;;;;;;;;21.50;21.00;;;;;22.53;73.96;100190.09;5056986;28;45343;-70
2023/06/18 04:11:51;;;;;;;;;25.00;25.00;;;;;22.59;73.97;100200.22;5057134;28;45291;-72
2023/06/18 04:14:17;;;;;;;;;28.25;28.25;;;;;22.59;74.32;100194.00;5057742;28;45282;-68
2023/06/18 04:16:43;;;;;;;;;31.75;30.25;;;;;22.58;74.68;100187.81;5056891;28;45631;-73
2023/06/18 04:19:08;;;;;;;;;25.75;25.75;;;;;22.61;74.23;100189.31;5057011;28;45426;-73
2023/06/18 04:21:38;;;;;;;;;27.25;26.75;;;;;22.60;74.63;100183.13;5055856;28;45367;-72
2023/06/18 04:24:04;;;;;;;;;25.00;25.00;;;;;22.62;75.07;100177.63;5055648;28;45361;-72
2023/06/18 04:26:30;;;;;;;;;29.50;29.00;;;;;22.62;75.56;100182.97;5056572;28;45381;-72
2023/06/18 04:28:55;;;;;;;;;27.75;27.75;;;;;22.69;75.29;100183.22;5056485;28;51648;-73
2023/06/18 04:31:20;;;;;;;;;30.00;29.75;;;;;22.72;76.31;100185.63;5056998;28;45440;-73
2023/06/18 04:33:46;;;;;;;;;30.75;30.00;;;;;22.70;77.70;100174.19;5056276;28;45900;-73
2023/06/18 04:36:11;;;;;;;;;33.75;31.25;;;;;22.73;77.85;100189.97;5057407;28;45675;-72
2023/06/18 04:38:37;;;;;;;;;31.50;30.50;;;;;22.72;78.55;100188.28;5056686;28;45398;-73
2023/06/18 04:41:02;;;;;;;;;32.50;30.75;;;;;22.76;78.77;100198.53;5056733;28;45280;-75
2023/06/18 04:43:27;;;;;;;;;27.75;27.75;;;;;22.77;78.31;100199.41;5057043;28;45252;-74
2023/06/18 04:45:54;;;;;;;;;22.75;22.75;;;;;22.82;77.02;100196.28;5056499;28;46265;-72
2023/06/18 04:48:19;;;;;;;;;18.75;18.75;;;;;22.82;76.18;100207.84;5056433;28;45389;-70
2023/06/18 04:50:45;;;;;;;;;22.00;22.00;;;;;22.85;76.49;100207.53;5055452;28;45521;-74
2023/06/18 04:53:10;;;;;;;;;23.25;23.25;;;;;22.88;76.21;100204.56;5055979;28;45592;-74
2023/06/18 04:55:37;;;;;;;;;22.50;22.50;;;;;22.93;76.26;100203.25;5056427;28;45729;-72
2023/06/18 04:58:04;;;;;;;;;21.75;21.75;;;;;22.86;75.91;100201.19;5057108;28;45585;-72
2023/06/18 05:00:29;;;;;;;;;19.50;19.50;;;;;22.92;76.43;100223.88;5056807;28;45374;-73
2023/06/18 05:02:57;;;;;;;;;21.75;21.75;;;;;22.87;76.54;100228.84;5073117;28;45536;-73
2023/06/18 05:05:22;;;;;;;;;20.00;20.00;;;;;22.89;76.62;100225.00;5056455;28;46064;-72
2023/06/18 05:07:47;;;;;;;;;18.25;18.25;;;;;22.85;75.86;100202.16;5056258;28;45314;-72
2023/06/18 05:10:13;;;;;;;;;17.50;17.50;;;;;22.89;75.52;100210.78;5055678;28;52101;-74
2023/06/18 05:12:38;;;;;;;;;15.75;15.75;;;;;22.89;74.93;100205.41;5055112;28;45370;-72
2023/06/18 05:15:05;;;;;;;;;14.75;14.75;;;;;22.88;74.74;100207.22;5056115;28;46092;-71
2023/06/18 05:17:30;;;;;;;;;14.50;14.50;;;;;22.86;73.92;100203.84;5054761;28;45217;-71
2023/06/18 05:19:55;;;;;;;;;13.50;13.50;;;;;22.89;73.80;100216.13;5056264;28;45408;-71
2023/06/18 05:22:21;;;;;;;;;12.25;12.25;;;;;22.87;73.54;100216.28;5056810;28;45441;-72
2023/06/18 05:24:46;;;;;;;;;13.00;13.00;;;;;22.86;73.87;100228.00;5056359;28;46344;-72
2023/06/18 05:27:12;;;;;;;;;13.75;13.75;;;;;22.86;73.67;100228.00;5056115;28;45360;-71
2023/06/18 05:29:37;;;;;;;;;13.25;13.25;;;;;22.86;73.77;100228.00;5055867;28;45437;-74
2023/06/18 05:32:03;;;;;;;;;14.25;14.25;;;;;22.88;73.58;100228.69;5056568;28;45255;-70
2023/06/18 05:34:28;;;;;;;;;13.75;13.75;;;;;22.85;73.89;100220.13;5071894;27;48060;-70
2023/06/18 05:36:54;;;;;;;;;15.00;15.00;;;;;22.88;73.97;100223.31;5055063;28;45413;-71
2023/06/18 05:39:19;;;;;;;;;12.00;12.00;;;;;22.89;73.49;100229.53;5056850;28;45398;-72
2023/06/18 05:41:44;;;;;;;;;13.00;11.50;;;;;22.91;73.44;100228.38;5056339;28;45543;-71
2023/06/18 05:44:10;;;;;;;;;12.00;12.00;;;;;22.90;73.37;100221.34;5055549;28;45590;-70
2023/06/18 05:46:35;;;;;;;;;13.00;13.00;;;;;22.90;73.29;100226.69;5056213;28;45351;-71
2023/06/18 05:49:01;;;;;;;;;12.50;12.50;;;;;22.89;73.02;100226.88;5056418;28;45440;-73
2023/06/18 05:51:26;;;;;;;;;16.00;15.00;;;;;22.93;73.81;100232.75;5054380;28;45384;-73
2023/06/18 05:53:51;;;;;;;;;12.25;12.25;;;;;22.90;73.66;100220.50;5055613;28;46301;-72
2023/06/18 05:56:17;;;;;;;;;11.75;11.75;;;;;22.90;73.87;100225.88;5055131;28;45402;-73
2023/06/18 05:58:42;;;;;;;;;13.75;13.75;;;;;22.89;73.18;100224.19;5055046;28;45846;-71
2023/06/18 06:01:08;;;;;;;;;12.00;11.00;;;;;22.96;72.90;100233.31;5055495;28;45495;-70
2023/06/18 06:03:35;;;;;;;;;15.00;15.00;;;;;22.99;72.98;100226.78;5054469;28;46761;-73
2023/06/18 06:06:01;;;;;;;;;14.25;14.25;;;;;23.06;72.90;100230.53;5054754;28;45393;-73
2023/06/18 06:08:26;;;;;;;;;13.25;13.25;;;;;23.11;72.87;100225.56;5055113;28;45463;-73
2023/06/18 06:10:51;;;;;;;;;13.00;13.00;;;;;23.16;72.39;100235.84;5055802;28;45232;-75
2023/06/18 06:13:17;;;;;;;;;8.25;8.25;;;;;23.20;71.28;100238.06;5054975;28;46602;-74
2023/06/18 06:15:42;;;;;;;;;16.50;16.50;;;;;23.19;71.80;100239.06;5054937;28;45224;-71
2023/06/18 06:18:08;;;;;;;;;15.00;15.00;;;;;23.18;72.02;100228.50;5055051;28;45291;-73
2023/06/18 06:20:33;;;;;;;;;14.25;14.25;;;;;23.31;72.22;100237.03;5055218;28;45351;-73
2023/06/18 06:22:58;;;;;;;;;15.75;15.75;;;;;23.37;72.20;100240.97;5054538;28;46945;-72
2023/06/18 06:25:24;;;;;;;;;14.50;14.50;;;;;23.45;72.14;100232.13;5055519;28;45503;-74
2023/06/18 06:27:49;;;;;;;;;13.50;13.50;;;;;23.51;71.92;100236.88;5055169;28;45326;-74
2023/06/18 06:30:15;;;;;;;;;16.00;16.00;;;;;23.46;71.70;100215.88;5055279;28;46175;-70
2023/06/18 06:32:40;;;;;;;;;16.25;16.25;;;;;23.63;71.95;100234.78;5054810;28;45546;-74
2023/06/18 06:35:06;;;;;;;;;16.75;16.75;;;;;23.71;71.54;100229.47;5053528;28;45349;-74
2023/06/18 06:37:32;;;;;;;;;20.50;18.50;;;;;23.69;70.49;100212.69;5055035;28;45353;-72
2023/06/18 06:39:58;;;;;;;;;15.50;15.50;;;;;23.84;70.23;100233.59;5054872;28;45347;-71
2023/06/18 06:42:24;;;;;;;;;13.75;13.75;;;;;23.83;69.37;100222.00;5053071;28;47502;-70
2023/06/18 06:44:50;;;;;;;;;17.50;17.50;;;;;23.89;69.88;100215.16;5054594;28;45324;-72
2023/06/18 06:47:16;;;;;;;;;18.50;18.50;;;;;23.97;68.95;100220.59;5054723;28;45269;-71
2023/06/18 06:49:41;;;;;;;;;14.25;14.25;;;;;23.97;68.05;100223.28;5055003;28;45623;-72
2023/06/18 06:52:07;;;;;;;;;15.25;15.25;;;;;23.96;67.87;100218.06;5054194;28;45298;-71
2023/06/18 06:54:33;;;;;;;;;16.75;16.75;;;;;23.99;68.08;100221.28;5054435;28;45142;-73
2023/06/18 06:56:58;;;;;;;;;15.00;15.00;;;;;24.01;68.29;100213.94;5053202;28;45327;-73
2023/06/18 06:59:24;;;;;;;;;14.50;14.50;;;;;24.15;67.57;100225.09;5054883;28;45299;-75
2023/06/18 07:01:49;;;;;;;;;12.50;12.50;;;;;24.21;67.25;100224.44;5054351;28;45434;-73
2023/06/18 07:04:14;;;;;;;;;13.25;13.25;;;;;24.27;67.10;100223.81;5054500;28;45335;-73
2023/06/18 07:06:40;;;;;;;;;15.00;15.00;;;;;24.36;66.68;100222.84;5054459;28;45335;-70
2023/06/18 07:09:06;;;;;;;;;16.00;16.00;;;;;24.46;66.36;100232.66;5054702;28;45338;-73
2023/06/18 07:11:33;;;;;;;;;16.00;16.00;;;;;24.48;65.80;100215.34;5053775;28;46718;-72
2023/06/18 07:13:59;;;;;;;;;16.50;16.50;;;;;24.55;65.21;100218.25;5054095;28;45441;-69
2023/06/18 07:16:24;;;;;;;;;16.00;16.00;;;;;24.61;64.48;100219.44;5056862;28;45276;-69
2023/06/18 07:18:49;;;;;;;;;15.25;15.25;;;;;24.60;64.46;100215.91;5057912;28;45493;-70
2023/06/18 07:21:16;;;;;;;;;17.25;17.25;;;;;24.55;64.23;100209.31;5057641;28;46543;-73
2023/06/18 07:23:41;;;;;;;;;17.25;17.25;;;;;24.57;63.87;100216.22;5057747;28;45425;-73
2023/06/18 07:26:06;;;;;;;;;19.00;19.00;;;;;24.58;63.71;100215.22;5057159;28;51527;-74
2023/06/18 07:28:32;;;;;;;;;20.25;20.00;;;;;24.63;64.15;100222.78;5057906;28;45474;-71
2023/06/18 07:30:57;;;;;;;;;16.50;16.50;;;;;24.69;63.39;100218.63;5057866;28;46319;-70
2023/06/18 07:33:23;;;;;;;;;16.50;16.50;;;;;24.79;62.87;100224.72;5057584;28;45214;-71
2023/06/18 07:35:48;;;;;;;;;17.25;17.25;;;;;24.83;62.46;100225.22;5056173;28;45511;-72
2023/06/18 07:38:13;;;;;;;;;18.75;18.75;;;;;24.92;62.34;100218.91;5057176;28;45885;-73
2023/06/18 07:40:38;;;;;;;;;14.75;14.75;;;;;24.99;62.16;100229.81;5056917;28;59446;-72
2023/06/18 07:43:04;;;;;;;;;15.25;15.25;;;;;25.05;62.05;100215.72;5057383;28;45343;-70
2023/06/18 07:45:30;;;;;;;;;18.50;18.50;;;;;25.14;62.68;100217.41;5056056;28;45380;-71
2023/06/18 07:47:55;;;;;;;;;17.00;17.00;;;;;25.22;62.55;100216.59;5057768;28;45265;-73
2023/06/18 07:50:21;;;;;;;;;15.50;15.50;;;;;25.27;62.13;100216.94;5057236;28;45256;-71
2023/06/18 07:52:46;;;;;;;;;18.25;18.25;;;;;25.23;62.29;100211.03;5056870;28;45418;-74
2023/06/18 07:55:11;;;;;;;;;14.50;14.50;;;;;25.26;62.25;100222.47;5057098;28;45244;-74
2023/06/18 07:57:38;;;;;;;;;17.75;17.75;;;;;25.27;62.05;100216.94;5056927;28;45505;-73
2023/06/18 08:00:04;;;;;;;;;19.00;18.25;;;;;25.32;61.83;100233.41;5056745;28;47307;-73
2023/06/18 08:02:29;;;;;;;;;15.25;15.25;;;;;25.33;62.26;100228.84;5055552;28;45687;-72
2023/06/18 08:04:55;;;;;;;;;17.50;17.50;;;;;25.36;61.96;100228.53;5055694;28;45269;-73
2023/06/18 08:07:20;;;;;;;;;17.50;17.50;;;;;25.46;61.44;100226.56;5057322;28;45644;-74
2023/06/18 08:09:45;;;;;;;;;18.75;18.75;;;;;25.47;61.08;100217.47;5056578;28;46064;-74
2023/06/18 08:12:11;;;;;;;;;18.00;18.00;;;;;25.48;59.85;100213.78;5056835;28;45570;-73
2023/06/18 08:14:37;;;;;;;;;18.25;17.50;;;;;25.52;60.06;100215.13;5056880;28;45257;-75
2023/06/18 08:17:02;;;;;;;;;21.75;21.75;;;;;25.52;59.44;100212.44;5056887;28;45503;-73
2023/06/18 08:19:28;;;;;;;;;22.00;22.00;;;;;25.53;59.65;100205.19;5056708;28;45331;-74
2023/06/18 08:21:53;;;;;;;;;19.75;19.75;;;;;25.58;59.42;100210.91;5055203;28;45393;-73
2023/06/18 08:24:19;;;;;;;;;18.25;18.25;;;;;25.67;59.40;100211.75;5056557;28;45454;-75
2023/06/18 08:26:44;;;;;;;;;19.75;18.50;;;;;25.78;58.51;100213.22;5055748;28;45511;-70
2023/06/18 08:29:09;;;;;;;;;19.75;19.75;;;;;25.88;58.50;100208.50;5056038;28;46051;-73
2023/06/18 08:31:35;;;;;;;;;20.75;20.75;;;;;25.94;58.23;100207.81;5056393;28;45458;-73
2023/06/18 08:34:00;;;;;;;;;19.00;19.00;;;;;26.02;57.33;100195.34;5072136;27;45445;-73
2023/06/18 08:36:26;;;;;;;;;17.50;17.50;;;;;26.07;56.26;100201.06;5056966;28;45621;-72
2023/06/18 08:38:51;;;;;;;;;17.50;17.50;;;;;25.98;55.97;100181.38;5056715;28;56687;-74
2023/06/18 08:41:17;;;;;;;;;16.50;16.50;;;;;26.06;55.85;100188.59;5056880;28;47145;-75
2023/06/18 08:43:42;;;;;;;;;18.00;17.00;;;;;26.09;55.66;100191.78;5056949;28;45502;-74
2023/06/18 08:46:15;;;;;;;;;19.75;19.75;;;;;26.20;55.99;100197.84;5055550;28;45734;-73
2023/06/18 08:48:55;;;;;;;;;18.75;18.75;;;;;26.30;55.54;100194.94;5056464;28;45598;-74
2023/06/18 08:51:22;;;;;;;;;22.00;22.00;;;;;26.37;55.25;100195.94;5056366;28;45299;-72
2023/06/18 08:54:05;;;;;;;;;18.00;18.00;;;;;26.42;54.74;100185.47;5071737;27;45782;-73
2023/06/18 08:56:32;;;;;;;;;20.75;20.75;;;;;26.44;55.04;100186.13;5056670;28;45231;-74
2023/06/18 08:58:57;;;;;;;;;16.25;16.25;;;;;26.50;54.69;100192.66;5055922;28;46555;-73
2023/06/18 09:01:24;;;;;;;;;18.00;18.00;;;;;26.52;54.12;100180.69;5056031;28;45288;-72
2023/06/18 09:03:52;;;;;;;;;14.50;14.50;;;;;26.53;53.78;100174.28;5054691;28;45335;-74
2023/06/18 09:06:17;;;;;;;;;16.75;16.75;;;;;26.59;53.74;100177.28;5054641;28;45365;-72
2023/06/18 09:08:43;;;;;;;;;16.25;16.25;;;;;26.68;54.08;100171.69;5054021;28;47397;-72
2023/06/18 09:11:08;;;;;;;;;19.75;19.75;;;;;26.81;53.74;100186.44;5055508;28;45381;-71
2023/06/18 09:13:40;;;;;;;;;17.00;17.00;;;;;26.91;53.47;100175.44;5056265;28;45351;-70
2023/06/18 09:16:05;;;;;;;;;17.00;17.00;;;;;27.00;53.11;100166.25;5056345;28;45314;-69
2023/06/18 09:18:31;;;;;;;;;18.00;18.00;;;;;27.12;52.59;100164.84;5055982;28;46155;-68
2023/06/18 09:20:56;;;;;;;;;14.50;14.50;;;;;27.30;52.60;100179.03;5055826;28;45556;-74
2023/06/18 09:23:22;;;;;;;;;19.25;19.25;;;;;27.39;51.90;100181.50;5055920;28;45426;-73
2023/06/18 09:25:52;;;;;;;;;16.00;16.00;;;;;27.48;51.34;100171.44;5055996;28;45425;-75
2023/06/18 09:28:21;;;;;;;;;19.25;19.25;;;;;27.54;51.44;100162.63;5055477;28;45295;-75
2023/06/18 09:31:00;;;;;;;;;23.75;23.75;;;;;27.67;51.56;100170.09;5055869;28;45432;-73
2023/06/18 09:33:33;;;;;;;;;18.50;18.50;;;;;27.73;50.73;100168.53;5055397;28;45454;-72
2023/06/18 09:36:08;;;;;;;;;17.50;17.50;;;;;27.74;50.76;100164.81;5053959;28;45213;-72
2023/06/18 09:38:42;;;;;;;;;21.00;20.75;;;;;27.73;50.47;100167.69;5055272;28;45655;-74
2023/06/18 09:41:12;;;;;;;;;20.75;20.75;;;;;27.78;51.03;100159.88;5055146;28;45430;-72
2023/06/18 09:43:40;;;;;;;;;17.75;17.75;;;;;27.79;50.13;100159.69;5055404;28;45304;-69
2023/06/18 09:46:09;;;;;;;;;18.50;18.50;;;;;27.74;50.23;100151.31;5055711;28;45463;-72
2023/06/18 09:48:44;;;;;;;;;17.50;17.50;;;;;27.75;50.49;100158.41;5053795;28;47090;-71
2023/06/18 09:51:10;;;;;;;;;18.50;18.50;;;;;27.76;51.13;100151.97;5055039;28;45352;-74
2023/06/18 09:53:36;;;;;;;;;21.25;21.25;;;;;27.72;50.80;100156.06;5055466;28;45322;-74
2023/06/18 09:56:27;;;;;;;;;20.75;20.75;;;;;27.72;51.25;100156.06;5055043;28;45583;-74
2023/06/18 09:58:53;;;;;;;;;19.75;19.75;;;;;27.74;51.15;100151.31;5054158;28;45375;-75
2023/06/18 10:01:19;;;;;;;;;26.00;26.00;;;;;27.89;50.83;100156.72;5055192;28;45291;-73
2023/06/18 10:03:46;;;;;;;;;128.25;128.25;;;;;27.94;50.53;100154.28;5055000;28;45304;-73
2023/06/18 10:06:18;;;;;;;;;60.67;51.00;;;;;27.95;50.64;100149.72;5055055;28;45545;-73
2023/06/18 10:08:46;;;;;;;;;24.75;24.75;;;;;27.97;51.06;100136.88;5053087;28;46142;-73
2023/06/18 10:11:13;;;;;;;;;22.25;22.25;;;;;28.09;50.34;100146.19;5054743;28;45520;-75
2023/06/18 10:13:46;;;;;;;;;25.00;25.00;;;;;28.19;50.17;100151.34;5054854;28;45388;-73
2023/06/18 10:16:14;;;;;;;;;23.00;23.00;;;;;28.33;49.51;100163.16;5053388;28;45482;-73
2023/06/18 10:19:01;;;;;;;;;24.00;24.00;;;;;28.35;49.45;100155.69;5054563;28;46513;-73
2023/06/18 10:21:31;;;;;;;;;23.50;23.50;;;;;28.49;49.75;100142.31;5054762;28;45527;-73
2023/06/18 10:24:06;;;;;;;;;25.25;25.25;;;;;28.67;48.26;100150.88;5054579;28;45374;-75
2023/06/18 10:26:32;;;;;;;;;21.50;21.50;;;;;28.77;48.62;100141.59;5054757;28;45367;-74
2023/06/18 10:28:58;;;;;;;;;23.25;23.25;;;;;28.96;48.24;100143.69;5054346;28;46484;-74
2023/06/18 10:31:24;;;;;;;;;22.50;22.50;;;;;29.11;48.14;100138.19;5054272;28;45481;-74
2023/06/18 10:33:51;;;;;;;;;29.25;28.50;;;;;29.25;47.13;100132.91;5054274;28;45395;-74
2023/06/18 10:36:17;;;;;;;;;62.00;53.33;;;;;29.43;46.61;100129.72;5054657;28;45354;-73
2023/06/18 10:38:44;;;;;;;;;39.75;35.00;;;;;29.53;45.84;100127.50;5054256;28;46366;-73
2023/06/18 10:41:11;;;;;;;;;20.50;20.50;;;;;29.57;46.14;100130.66;5052979;28;45368;-71
2023/06/18 10:43:41;;;;;;;;;23.25;23.25;;;;;29.68;46.24;100132.81;5054245;28;45268;-75
2023/06/18 10:46:10;;;;;;;;;22.25;22.25;;;;;29.73;45.68;100132.22;5054069;28;45218;-75
2023/06/18 10:48:35;;;;;;;;;24.75;24.75;;;;;29.70;45.44;100127.22;5054029;28;45427;-76
2023/06/18 10:51:17;;;;;;;;;23.50;23.50;;;;;29.65;45.35;100116.94;5055660;28;45374;-72
2023/06/18 10:53:45;;;;;;;;;21.50;21.50;;;;;29.69;45.86;100120.09;5058021;28;45383;-75
2023/06/18 10:56:14;;;;;;;;;50.50;42.50;;;;;29.71;45.75;100115.34;5058213;28;45442;-73
2023/06/18 10:58:41;;;;;;;;;26.50;26.25;;;;;29.71;45.44;100112.63;5057817;28;45452;-77
2023/06/18 11:01:22;;;;;;;;;25.00;25.00;;;;;29.70;45.35;100117.19;5058019;28;45462;-74
2023/06/18 11:04:01;;;;;;;;;28.25;28.00;;;;;29.68;45.73;100110.28;5057551;28;45378;-73
2023/06/18 11:06:29;;;;;;;;;30.00;28.50;;;;;29.68;45.74;100113.00;5072965;27;45428;-75
2023/06/18 11:08:55;;;;;;;;;26.25;26.00;;;;;29.73;45.19;100107.84;5055730;28;48885;-76